PWSweather.com
Personal Weather Stations
Station Observations
TENMILE2
Watts Bar Lake, Ten Mile, TN 37880

Watts Bar LakeTen Mile, TN 37880

Lat: 35.686, Lon: -84.7068

Elevation: 767

Station Type: Davis VP2

http://www.wattsbarweather.net

High Low Average
Temperature 76.7°F24.8°F 58.5°F14.7°F 64.4°F18.0°F
Dew Point 65.8°F18.8°F 56.6°F13.7°F 61.2°F16.2°F
Winds 8.1 mph S13.0 mph S Calm Calm 1.6 mph 2.6 mph
Wind Gusts 17.5 mph28.2 mph -- 4.9 mph7.9 mph
Humidity 97% 62% 90%
Pressure 29.94 in1013.90 in 29.78 in1008.50 in -
Precipitation 8.95 in227.30 in - -
Hour Temp Dew Point Humidity Winds Wind Gusts Pressure Precip Precip Rate Daily Precip Total
12:00 AM 64.7°F18.2°C 63.5°F17.5°C 96% Calm Calm 3.8 mph6.1 kmh 29.92 in1013.2 mb 0.02 in0.5 mm 0.00 in0.0 mm 0.02 in0.5 mm
12:05 AM 64.7°F18.2°C 63.5°F17.5°C 96% Calm Calm 3.0 mph4.8 kmh 29.92 in1013.2 mb 0.02 in0.5 mm 0.00 in0.0 mm 0.02 in0.5 mm
12:10 AM 64.7°F18.2°C 63.5°F17.5°C 96% 1.7 mph NE2.7 kmh NE 3.0 mph4.8 kmh 29.92 in1013.2 mb 0.02 in0.5 mm 0.00 in0.0 mm 0.02 in0.5 mm
12:15 AM 64.6°F18.1°C 63.4°F17.4°C 96% 1.3 mph NNW2.1 kmh NNW 2.5 mph4.0 kmh 29.92 in1013.2 mb 0.02 in0.5 mm 0.00 in0.0 mm 0.02 in0.5 mm
12:20 AM 64.6°F18.1°C 63.4°F17.4°C 96% 1.3 mph N2.1 kmh N 2.0 mph3.2 kmh 29.91 in1012.9 mb 0.02 in0.5 mm 0.00 in0.0 mm 0.02 in0.5 mm
12:25 AM 64.5°F18.1°C 63.3°F17.4°C 96% Calm Calm 2.5 mph4.0 kmh 29.91 in1012.9 mb 0.02 in0.5 mm 0.00 in0.0 mm 0.02 in0.5 mm
12:30 AM 64.5°F18.1°C 63.3°F17.4°C 96% 1.3 mph NE2.1 kmh NE 2.5 mph4.0 kmh 29.91 in1012.9 mb 0.02 in0.5 mm 0.00 in0.0 mm 0.02 in0.5 mm
12:35 AM 64.5°F18.1°C 63.3°F17.4°C 96% Calm Calm 2.5 mph4.0 kmh 29.92 in1013.2 mb 0.03 in0.8 mm 0.12 in3.0 mm 0.01 in0.3 mm
12:40 AM 64.5°F18.1°C 63.3°F17.4°C 96% Calm Calm 2.5 mph4.0 kmh 29.92 in1013.2 mb 0.03 in0.8 mm 0.00 in0.0 mm 0.01 in0.3 mm
12:45 AM 64.6°F18.1°C 63.4°F17.4°C 96% Calm Calm 1.0 mph1.6 kmh 29.93 in1013.5 mb 0.01 in0.3 mm 0.00 in0.0 mm 0.01 in0.3 mm
12:51 AM 64.6°F18.1°C 63.4°F17.4°C 96% Calm Calm 1.0 mph1.6 kmh 29.92 in1013.2 mb 0.01 in0.3 mm 0.00 in0.0 mm 0.01 in0.3 mm
12:55 AM 64.5°F18.1°C 63.3°F17.4°C 96% 1.3 mph NE2.1 kmh NE 1.3 mph2.1 kmh 29.92 in1013.2 mb 0.01 in0.3 mm 0.00 in0.0 mm 0.01 in0.3 mm
01:00 AM 64.5°F18.1°C 63.3°F17.4°C 96% 1.3 mph NE2.1 kmh NE 1.3 mph2.1 kmh 29.92 in1013.2 mb 0.01 in0.3 mm 0.00 in0.0 mm 0.01 in0.3 mm
01:06 AM 64.5°F18.1°C 63.3°F17.4°C 96% Calm Calm 1.3 mph2.1 kmh 29.92 in1013.2 mb 0.01 in0.3 mm 0.00 in0.0 mm 0.01 in0.3 mm
01:11 AM 64.4°F18.0°C 63.2°F17.3°C 96% Calm Calm 1.3 mph2.1 kmh 29.91 in1012.9 mb 0.01 in0.3 mm 0.00 in0.0 mm 0.01 in0.3 mm
01:16 AM 64.3°F17.9°C 63.1°F17.3°C 96% Calm Calm 1.3 mph2.1 kmh 29.91 in1012.9 mb 0.01 in0.3 mm 0.00 in0.0 mm 0.01 in0.3 mm
01:21 AM 64.3°F17.9°C 63.1°F17.3°C 96% Calm Calm 1.0 mph1.6 kmh 29.91 in1012.9 mb 0.01 in0.3 mm 0.00 in0.0 mm 0.01 in0.3 mm
01:26 AM 64.2°F17.9°C 63.0°F17.2°C 96% 1.3 mph NNE2.1 kmh NNE 2.5 mph4.0 kmh 29.90 in1012.5 mb 0.01 in0.3 mm 0.00 in0.0 mm 0.01 in0.3 mm
01:31 AM 64.2°F17.9°C 63.0°F17.2°C 96% 1.3 mph NE2.1 kmh NE 2.5 mph4.0 kmh 29.91 in1012.9 mb 0.01 in0.3 mm 0.00 in0.0 mm 0.01 in0.3 mm
01:36 AM 64.1°F17.8°C 62.9°F17.2°C 96% Calm Calm 2.0 mph3.2 kmh 29.91 in1012.9 mb 0.00 in0.0 mm 0.00 in0.0 mm 0.01 in0.3 mm
01:41 AM 64.1°F17.8°C 62.9°F17.2°C 96% Calm Calm 2.0 mph3.2 kmh 29.90 in1012.5 mb 0.00 in0.0 mm 0.00 in0.0 mm 0.01 in0.3 mm
01:46 AM 64.1°F17.8°C 62.9°F17.2°C 96% Calm Calm 1.0 mph1.6 kmh 29.91 in1012.9 mb 0.00 in0.0 mm 0.00 in0.0 mm 0.01 in0.3 mm
01:51 AM 64.0°F17.8°C 62.8°F17.1°C 96% Calm Calm -- 29.90 in1012.5 mb 0.00 in0.0 mm 0.00 in0.0 mm 0.01 in0.3 mm
01:56 AM 63.9°F17.7°C 62.7°F17.1°C 96% Calm Calm -- 29.90 in1012.5 mb 0.00 in0.0 mm 0.00 in0.0 mm 0.01 in0.3 mm
02:01 AM 63.8°F17.7°C 62.6°F17.0°C 96% Calm Calm -- 29.90 in1012.5 mb 0.00 in0.0 mm 0.00 in0.0 mm 0.01 in0.3 mm
02:06 AM 63.8°F17.7°C 62.6°F17.0°C 96% 1.3 mph NE2.1 kmh NE 1.3 mph2.1 kmh 29.90 in1012.5 mb 0.00 in0.0 mm 0.00 in0.0 mm 0.01 in0.3 mm
02:11 AM 63.8°F17.7°C 62.6°F17.0°C 96% Calm Calm 1.3 mph2.1 kmh 29.90 in1012.5 mb 0.00 in0.0 mm 0.00 in0.0 mm 0.01 in0.3 mm
02:16 AM 63.8°F17.7°C 62.6°F17.0°C 96% 1.3 mph NE2.1 kmh NE 1.3 mph2.1 kmh 29.89 in1012.2 mb 0.00 in0.0 mm 0.00 in0.0 mm 0.01 in0.3 mm
02:21 AM 63.8°F17.7°C 62.6°F17.0°C 96% Calm Calm 1.3 mph2.1 kmh 29.89 in1012.2 mb 0.00 in0.0 mm 0.00 in0.0 mm 0.01 in0.3 mm
02:26 AM 63.6°F17.6°C 62.4°F16.9°C 96% Calm Calm 1.0 mph1.6 kmh 29.88 in1011.9 mb 0.00 in0.0 mm 0.00 in0.0 mm 0.01 in0.3 mm
02:31 AM 63.5°F17.5°C 62.3°F16.8°C 96% Calm Calm 1.0 mph1.6 kmh 29.88 in1011.9 mb 0.00 in0.0 mm 0.00 in0.0 mm 0.01 in0.3 mm
02:36 AM 63.4°F17.4°C 62.2°F16.8°C 96% Calm Calm 1.0 mph1.6 kmh 29.88 in1011.9 mb 0.00 in0.0 mm 0.00 in0.0 mm 0.01 in0.3 mm
02:41 AM 63.2°F17.3°C 62.0°F16.7°C 96% Calm Calm 1.0 mph1.6 kmh 29.88 in1011.9 mb 0.00 in0.0 mm 0.00 in0.0 mm 0.01 in0.3 mm
02:46 AM 63.2°F17.3°C 62.0°F16.7°C 96% Calm Calm 1.0 mph1.6 kmh 29.88 in1011.9 mb 0.00 in0.0 mm 0.00 in0.0 mm 0.01 in0.3 mm
02:51 AM 62.9°F17.2°C 61.7°F16.5°C 96% Calm Calm 1.0 mph1.6 kmh 29.87 in1011.5 mb 0.00 in0.0 mm 0.00 in0.0 mm 0.01 in0.3 mm
02:56 AM 62.6°F17.0°C 61.4°F16.3°C 96% Calm Calm -- 29.87 in1011.5 mb 0.00 in0.0 mm 0.00 in0.0 mm 0.01 in0.3 mm
03:01 AM 62.5°F16.9°C 61.3°F16.3°C 96% Calm Calm -- 29.87 in1011.5 mb 0.00 in0.0 mm 0.00 in0.0 mm 0.01 in0.3 mm
03:06 AM 62.4°F16.9°C 61.2°F16.2°C 96% Calm Calm -- 29.86 in1011.2 mb 0.00 in0.0 mm 0.00 in0.0 mm 0.01 in0.3 mm
03:11 AM 62.3°F16.8°C 61.1°F16.2°C 96% Calm Calm -- 29.86 in1011.2 mb 0.00 in0.0 mm 0.00 in0.0 mm 0.01 in0.3 mm
03:16 AM 62.2°F16.8°C 61.0°F16.1°C 96% Calm Calm -- 29.86 in1011.2 mb 0.00 in0.0 mm 0.00 in0.0 mm 0.01 in0.3 mm
03:21 AM 62.3°F16.8°C 61.1°F16.2°C 96% Calm Calm -- 29.86 in1011.2 mb 0.00 in0.0 mm 0.00 in0.0 mm 0.01 in0.3 mm
03:26 AM 62.2°F16.8°C 61.0°F16.1°C 96% Calm Calm -- 29.87 in1011.5 mb 0.00 in0.0 mm 0.00 in0.0 mm 0.01 in0.3 mm
03:31 AM 62.2°F16.8°C 61.0°F16.1°C 96% Calm Calm -- 29.86 in1011.2 mb 0.00 in0.0 mm 0.00 in0.0 mm 0.01 in0.3 mm
03:36 AM 62.3°F16.8°C 61.1°F16.2°C 96% Calm Calm -- 29.86 in1011.2 mb 0.00 in0.0 mm 0.00 in0.0 mm 0.01 in0.3 mm
03:41 AM 62.2°F16.8°C 61.0°F16.1°C 96% Calm Calm -- 29.85 in1010.8 mb 0.00 in0.0 mm 0.00 in0.0 mm 0.01 in0.3 mm
03:46 AM 62.2°F16.8°C 61.0°F16.1°C 96% Calm Calm -- 29.85 in1010.8 mb 0.00 in0.0 mm 0.00 in0.0 mm 0.01 in0.3 mm
03:51 AM 62.2°F16.8°C 61.0°F16.1°C 96% Calm Calm -- 29.85 in1010.8 mb 0.00 in0.0 mm 0.00 in0.0 mm 0.01 in0.3 mm
03:56 AM 62.1°F16.7°C 60.9°F16.1°C 96% Calm Calm -- 29.85 in1010.8 mb 0.00 in0.0 mm 0.00 in0.0 mm 0.01 in0.3 mm
04:01 AM 62.2°F16.8°C 61.0°F16.1°C 96% Calm Calm -- 29.85 in1010.8 mb 0.00 in0.0 mm 0.00 in0.0 mm 0.01 in0.3 mm
04:06 AM 62.1°F16.7°C 60.9°F16.1°C 96% Calm Calm -- 29.85 in1010.8 mb 0.00 in0.0 mm 0.00 in0.0 mm 0.01 in0.3 mm
04:11 AM 62.1°F16.7°C 60.9°F16.1°C 96% Calm Calm -- 29.85 in1010.8 mb 0.00 in0.0 mm 0.00 in0.0 mm 0.01 in0.3 mm
04:16 AM 62.0°F16.7°C 60.8°F16.0°C 96% 1.3 mph NE2.1 kmh NE 1.3 mph2.1 kmh 29.85 in1010.8 mb 0.00 in0.0 mm 0.00 in0.0 mm 0.01 in0.3 mm
04:21 AM 62.0°F16.7°C 60.8°F16.0°C 96% Calm Calm 1.3 mph2.1 kmh 29.85 in1010.8 mb 0.00 in0.0 mm 0.00 in0.0 mm 0.01 in0.3 mm
04:26 AM 61.9°F16.6°C 60.7°F15.9°C 96% Calm Calm 1.0 mph1.6 kmh 29.85 in1010.8 mb 0.00 in0.0 mm 0.00 in0.0 mm 0.01 in0.3 mm
04:31 AM 62.0°F16.7°C 60.8°F16.0°C 96% Calm Calm 1.0 mph1.6 kmh 29.85 in1010.8 mb 0.00 in0.0 mm 0.00 in0.0 mm 0.01 in0.3 mm
04:36 AM 62.1°F16.7°C 60.9°F16.1°C 96% Calm Calm -- 29.85 in1010.8 mb 0.00 in0.0 mm 0.00 in0.0 mm 0.01 in0.3 mm
04:41 AM 62.3°F16.8°C 61.4°F16.3°C 97% Calm Calm -- 29.85 in1010.8 mb 0.00 in0.0 mm 0.00 in0.0 mm 0.01 in0.3 mm
04:46 AM 62.3°F16.8°C 61.4°F16.3°C 97% Calm Calm -- 29.85 in1010.8 mb 0.00 in0.0 mm 0.00 in0.0 mm 0.01 in0.3 mm
04:51 AM 62.4°F16.9°C 61.5°F16.4°C 97% Calm Calm 1.3 mph2.1 kmh 29.85 in1010.8 mb 0.00 in0.0 mm 0.00 in0.0 mm 0.01 in0.3 mm
04:56 AM 62.3°F16.8°C 61.1°F16.2°C 96% Calm Calm 1.3 mph2.1 kmh 29.85 in1010.8 mb 0.00 in0.0 mm 0.00 in0.0 mm 0.01 in0.3 mm
05:01 AM 62.3°F16.8°C 61.1°F16.2°C 96% Calm Calm 1.0 mph1.6 kmh 29.85 in1010.8 mb 0.00 in0.0 mm 0.00 in0.0 mm 0.01 in0.3 mm
05:06 AM 62.4°F16.9°C 61.5°F16.4°C 97% Calm Calm 1.0 mph1.6 kmh 29.85 in1010.8 mb 0.00 in0.0 mm 0.00 in0.0 mm 0.01 in0.3 mm
05:11 AM 62.4°F16.9°C 61.5°F16.4°C 97% Calm Calm -- 29.85 in1010.8 mb 0.00 in0.0 mm 0.00 in0.0 mm 0.01 in0.3 mm
05:16 AM 62.5°F16.9°C 61.6°F16.4°C 97% Calm Calm -- 29.85 in1010.8 mb 0.00 in0.0 mm 0.00 in0.0 mm 0.01 in0.3 mm
05:21 AM 62.6°F17.0°C 61.7°F16.5°C 97% Calm Calm -- 29.85 in1010.8 mb 0.00 in0.0 mm 0.00 in0.0 mm 0.01 in0.3 mm
05:26 AM 62.7°F17.1°C 61.8°F16.6°C 97% Calm Calm 1.3 mph2.1 kmh 29.85 in1010.8 mb 0.00 in0.0 mm 0.00 in0.0 mm 0.01 in0.3 mm
05:31 AM 62.7°F17.1°C 61.8°F16.6°C 97% Calm Calm 1.3 mph2.1 kmh 29.85 in1010.8 mb 0.00 in0.0 mm 0.00 in0.0 mm 0.01 in0.3 mm
05:36 AM 62.6°F17.0°C 61.7°F16.5°C 97% Calm Calm 1.0 mph1.6 kmh 29.85 in1010.8 mb 0.00 in0.0 mm 0.00 in0.0 mm 0.01 in0.3 mm
05:41 AM 62.6°F17.0°C 61.7°F16.5°C 97% Calm Calm 1.0 mph1.6 kmh 29.85 in1010.8 mb 0.00 in0.0 mm 0.00 in0.0 mm 0.01 in0.3 mm
05:46 AM 62.6°F17.0°C 61.7°F16.5°C 97% Calm Calm -- 29.85 in1010.8 mb 0.00 in0.0 mm 0.00 in0.0 mm 0.01 in0.3 mm
05:51 AM 62.5°F16.9°C 61.6°F16.4°C 97% Calm Calm -- 29.85 in1010.8 mb 0.00 in0.0 mm 0.00 in0.0 mm 0.01 in0.3 mm
05:57 AM 62.6°F17.0°C 61.7°F16.5°C 97% Calm Calm -- 29.85 in1010.8 mb 0.00 in0.0 mm 0.00 in0.0 mm 0.01 in0.3 mm
06:02 AM 62.6°F17.0°C 61.7°F16.5°C 97% Calm Calm -- 29.85 in1010.8 mb 0.00 in0.0 mm 0.00 in0.0 mm 0.01 in0.3 mm
06:07 AM 62.7°F17.1°C 61.8°F16.6°C 97% Calm Calm -- 29.85 in1010.8 mb 0.00 in0.0 mm 0.00 in0.0 mm 0.01 in0.3 mm
06:12 AM 62.7°F17.1°C 61.8°F16.6°C 97% Calm Calm -- 29.85 in1010.8 mb 0.00 in0.0 mm 0.00 in0.0 mm 0.01 in0.3 mm
06:17 AM 62.6°F17.0°C 61.7°F16.5°C 97% Calm Calm -- 29.85 in1010.8 mb 0.00 in0.0 mm 0.00 in0.0 mm 0.01 in0.3 mm
06:22 AM 62.5°F16.9°C 61.6°F16.4°C 97% Calm Calm -- 29.85 in1010.8 mb 0.00 in0.0 mm 0.00 in0.0 mm 0.01 in0.3 mm
06:27 AM 62.4°F16.9°C 61.2°F16.2°C 96% 1.4 mph NE2.3 kmh NE 2.5 mph4.0 kmh 29.85 in1010.8 mb 0.00 in0.0 mm 0.00 in0.0 mm 0.01 in0.3 mm
06:32 AM 62.2°F16.8°C 61.0°F16.1°C 96% 1.9 mph NE3.1 kmh NE 2.5 mph4.0 kmh 29.85 in1010.8 mb 0.00 in0.0 mm 0.00 in0.0 mm 0.01 in0.3 mm
06:37 AM 62.1°F16.7°C 60.9°F16.1°C 96% 1.3 mph NE2.1 kmh NE 2.5 mph4.0 kmh 29.85 in1010.8 mb 0.00 in0.0 mm 0.00 in0.0 mm 0.01 in0.3 mm
06:42 AM 62.1°F16.7°C 60.9°F16.1°C 96% 1.4 mph ENE2.3 kmh ENE 2.5 mph4.0 kmh 29.85 in1010.8 mb 0.00 in0.0 mm 0.00 in0.0 mm 0.01 in0.3 mm
06:47 AM 62.0°F16.7°C 61.1°F16.2°C 97% 1.3 mph E2.1 kmh E 2.5 mph4.0 kmh 29.85 in1010.8 mb 0.00 in0.0 mm 0.00 in0.0 mm 0.01 in0.3 mm
06:52 AM 62.0°F16.7°C 61.1°F16.2°C 97% 1.3 mph NE2.1 kmh NE 2.5 mph4.0 kmh 29.86 in1011.2 mb 0.00 in0.0 mm 0.00 in0.0 mm 0.01 in0.3 mm
06:57 AM 62.0°F16.7°C 61.1°F16.2°C 97% 1.6 mph NE2.6 kmh NE 2.5 mph4.0 kmh 29.86 in1011.2 mb 0.00 in0.0 mm 0.00 in0.0 mm 0.01 in0.3 mm
07:02 AM 62.0°F16.7°C 61.1°F16.2°C 97% 1.3 mph NE2.1 kmh NE 2.5 mph4.0 kmh 29.86 in1011.2 mb 0.00 in0.0 mm 0.00 in0.0 mm 0.01 in0.3 mm
07:07 AM 62.1°F16.7°C 61.2°F16.2°C 97% Calm Calm 2.0 mph3.2 kmh 29.86 in1011.2 mb 0.00 in0.0 mm 0.00 in0.0 mm 0.01 in0.3 mm
07:12 AM 62.1°F16.7°C 61.2°F16.2°C 97% 1.3 mph ENE2.1 kmh ENE 2.5 mph4.0 kmh 29.86 in1011.2 mb 0.00 in0.0 mm 0.00 in0.0 mm 0.01 in0.3 mm
07:17 AM 62.2°F16.8°C 61.3°F16.3°C 97% Calm Calm 2.5 mph4.0 kmh 29.87 in1011.5 mb 0.00 in0.0 mm 0.00 in0.0 mm 0.01 in0.3 mm
07:22 AM 62.3°F16.8°C 61.4°F16.3°C 97% 1.3 mph NE2.1 kmh NE 1.3 mph2.1 kmh 29.87 in1011.5 mb 0.00 in0.0 mm 0.00 in0.0 mm 0.01 in0.3 mm
07:27 AM 62.4°F16.9°C 61.5°F16.4°C 97% 1.3 mph E2.1 kmh E 1.3 mph2.1 kmh 29.87 in1011.5 mb 0.00 in0.0 mm 0.00 in0.0 mm 0.01 in0.3 mm
07:32 AM 62.4°F16.9°C 61.5°F16.4°C 97% 1.3 mph SSW2.1 kmh SSW 1.3 mph2.1 kmh 29.87 in1011.5 mb 0.00 in0.0 mm 0.00 in0.0 mm 0.01 in0.3 mm
07:37 AM 62.6°F17.0°C 61.7°F16.5°C 97% Calm Calm 1.3 mph2.1 kmh 29.87 in1011.5 mb 0.00 in0.0 mm 0.00 in0.0 mm 0.01 in0.3 mm
07:42 AM 62.7°F17.1°C 61.8°F16.6°C 97% 1.3 mph SE2.1 kmh SE 1.3 mph2.1 kmh 29.87 in1011.5 mb 0.00 in0.0 mm 0.00 in0.0 mm 0.01 in0.3 mm
07:47 AM 62.7°F17.1°C 61.8°F16.6°C 97% 1.3 mph WSW2.1 kmh WSW 1.3 mph2.1 kmh 29.87 in1011.5 mb 0.00 in0.0 mm 0.00 in0.0 mm 0.01 in0.3 mm
07:52 AM 62.8°F17.1°C 61.9°F16.6°C 97% Calm Calm 1.3 mph2.1 kmh 29.87 in1011.5 mb 0.00 in0.0 mm 0.00 in0.0 mm 0.01 in0.3 mm
07:57 AM 62.9°F17.2°C 62.0°F16.7°C 97% 1.3 mph SSE2.1 kmh SSE 1.3 mph2.1 kmh 29.87 in1011.5 mb 0.00 in0.0 mm 0.00 in0.0 mm 0.01 in0.3 mm
08:02 AM 62.9°F17.2°C 62.0°F16.7°C 97% 1.3 mph SW2.1 kmh SW 2.5 mph4.0 kmh 29.87 in1011.5 mb 0.00 in0.0 mm 0.00 in0.0 mm 0.01 in0.3 mm
08:07 AM 62.9°F17.2°C 62.0°F16.7°C 97% 1.3 mph SW2.1 kmh SW 2.5 mph4.0 kmh 29.87 in1011.5 mb 0.00 in0.0 mm 0.00 in0.0 mm 0.01 in0.3 mm
08:12 AM 62.9°F17.2°C 62.0°F16.7°C 97% 2.3 mph S3.7 kmh S 3.8 mph6.1 kmh 29.88 in1011.9 mb 0.00 in0.0 mm 0.00 in0.0 mm 0.01 in0.3 mm
08:17 AM 62.9°F17.2°C 62.0°F16.7°C 97% 1.3 mph SSE2.1 kmh SSE 3.8 mph6.1 kmh 29.88 in1011.9 mb 0.00 in0.0 mm 0.00 in0.0 mm 0.01 in0.3 mm
08:22 AM 63.0°F17.2°C 62.1°F16.7°C 97% 1.3 mph SSE2.1 kmh SSE 3.0 mph4.8 kmh 29.88 in1011.9 mb 0.00 in0.0 mm 0.00 in0.0 mm 0.01 in0.3 mm
08:27 AM 63.0°F17.2°C 62.1°F16.7°C 97% Calm Calm 3.0 mph4.8 kmh 29.88 in1011.9 mb 0.00 in0.0 mm 0.00 in0.0 mm 0.01 in0.3 mm
08:32 AM 63.0°F17.2°C 62.1°F16.7°C 97% Calm Calm 2.0 mph3.2 kmh 29.88 in1011.9 mb 0.00 in0.0 mm 0.00 in0.0 mm 0.01 in0.3 mm
08:37 AM 63.0°F17.2°C 62.1°F16.7°C 97% Calm Calm 1.3 mph2.1 kmh 29.89 in1012.2 mb 0.00 in0.0 mm 0.00 in0.0 mm 0.01 in0.3 mm
08:42 AM 63.0°F17.2°C 62.1°F16.7°C 97% 1.4 mph SSE2.3 kmh SSE 5.0 mph8.0 kmh 29.89 in1012.2 mb 0.00 in0.0 mm 0.00 in0.0 mm 0.01 in0.3 mm
08:47 AM 62.9°F17.2°C 61.7°F16.5°C 96% 1.3 mph SE2.1 kmh SE 5.0 mph8.0 kmh 29.89 in1012.2 mb 0.00 in0.0 mm 0.00 in0.0 mm 0.01 in0.3 mm
08:52 AM 62.9°F17.2°C 61.7°F16.5°C 96% Calm Calm 5.0 mph8.0 kmh 29.89 in1012.2 mb 0.00 in0.0 mm 0.00 in0.0 mm 0.01 in0.3 mm
08:57 AM 62.9°F17.2°C 61.7°F16.5°C 96% 1.3 mph SE2.1 kmh SE 4.0 mph6.4 kmh 29.89 in1012.2 mb 0.00 in0.0 mm 0.00 in0.0 mm 0.01 in0.3 mm
09:02 AM 62.9°F17.2°C 61.7°F16.5°C 96% 1.4 mph SSE2.3 kmh SSE 2.5 mph4.0 kmh 29.88 in1011.9 mb 0.00 in0.0 mm 0.00 in0.0 mm 0.01 in0.3 mm
09:07 AM 62.9°F17.2°C 61.7°F16.5°C 96% 2.0 mph SSW3.2 kmh SSW 3.8 mph6.1 kmh 29.88 in1011.9 mb 0.00 in0.0 mm 0.00 in0.0 mm 0.01 in0.3 mm
09:12 AM 63.0°F17.2°C 61.8°F16.6°C 96% 1.7 mph SW2.7 kmh SW 3.8 mph6.1 kmh 29.89 in1012.2 mb 0.00 in0.0 mm 0.00 in0.0 mm 0.01 in0.3 mm
09:17 AM 62.9°F17.2°C 61.7°F16.5°C 96% 1.8 mph SSW2.9 kmh SSW 3.8 mph6.1 kmh 29.89 in1012.2 mb 0.00 in0.0 mm 0.00 in0.0 mm 0.01 in0.3 mm
09:22 AM 63.0°F17.2°C 61.8°F16.6°C 96% 1.3 mph SE2.1 kmh SE 3.8 mph6.1 kmh 29.89 in1012.2 mb 0.00 in0.0 mm 0.00 in0.0 mm 0.01 in0.3 mm
09:27 AM 63.0°F17.2°C 61.8°F16.6°C 96% 1.4 mph SSE2.3 kmh SSE 3.0 mph4.8 kmh 29.90 in1012.5 mb 0.00 in0.0 mm 0.00 in0.0 mm 0.01 in0.3 mm
09:32 AM 63.0°F17.2°C 61.8°F16.6°C 96% 1.7 mph SE2.7 kmh SE 3.0 mph4.8 kmh 29.89 in1012.2 mb 0.00 in0.0 mm 0.00 in0.0 mm 0.01 in0.3 mm
09:37 AM 63.1°F17.3°C 61.9°F16.6°C 96% Calm Calm 3.0 mph4.8 kmh 29.90 in1012.5 mb 0.00 in0.0 mm 0.00 in0.0 mm 0.01 in0.3 mm
09:42 AM 63.2°F17.3°C 62.0°F16.7°C 96% 1.8 mph S2.9 kmh S 3.0 mph4.8 kmh 29.90 in1012.5 mb 0.00 in0.0 mm 0.00 in0.0 mm 0.01 in0.3 mm
09:47 AM 63.1°F17.3°C 61.6°F16.4°C 95% 1.3 mph SE2.1 kmh SE 3.0 mph4.8 kmh 29.90 in1012.5 mb 0.00 in0.0 mm 0.00 in0.0 mm 0.01 in0.3 mm
09:52 AM 63.2°F17.3°C 61.7°F16.5°C 95% Calm Calm 2.5 mph4.0 kmh 29.91 in1012.9 mb 0.00 in0.0 mm 0.00 in0.0 mm 0.01 in0.3 mm
09:57 AM 63.2°F17.3°C 61.7°F16.5°C 95% 1.3 mph SSW2.1 kmh SSW 2.0 mph3.2 kmh 29.91 in1012.9 mb 0.00 in0.0 mm 0.00 in0.0 mm 0.01 in0.3 mm
10:02 AM 63.2°F17.3°C 61.7°F16.5°C 95% Calm Calm 2.0 mph3.2 kmh 29.91 in1012.9 mb 0.00 in0.0 mm 0.00 in0.0 mm 0.01 in0.3 mm
10:07 AM 63.1°F17.3°C 61.6°F16.4°C 95% 1.7 mph SE2.7 kmh SE 3.8 mph6.1 kmh 29.91 in1012.9 mb 0.00 in0.0 mm 0.00 in0.0 mm 0.01 in0.3 mm
10:12 AM 63.1°F17.3°C 61.6°F16.4°C 95% 2.1 mph S3.4 kmh S 3.8 mph6.1 kmh 29.92 in1013.2 mb 0.00 in0.0 mm 0.00 in0.0 mm 0.01 in0.3 mm
10:17 AM 63.1°F17.3°C 61.6°F16.4°C 95% 1.4 mph SE2.3 kmh SE 3.8 mph6.1 kmh 29.92 in1013.2 mb 0.00 in0.0 mm 0.00 in0.0 mm 0.01 in0.3 mm
10:22 AM 63.2°F17.3°C 61.7°F16.5°C 95% 2.9 mph S4.7 kmh S 6.3 mph10.1 kmh 29.92 in1013.2 mb 0.00 in0.0 mm 0.00 in0.0 mm 0.01 in0.3 mm
10:27 AM 63.2°F17.3°C 61.7°F16.5°C 95% 2.3 mph SSE3.7 kmh SSE 6.3 mph10.1 kmh 29.92 in1013.2 mb 0.01 in0.3 mm 0.12 in3.0 mm 0.02 in0.5 mm
10:32 AM 63.2°F17.3°C 61.7°F16.5°C 95% 2.1 mph S3.4 kmh S 6.3 mph10.1 kmh 29.92 in1013.2 mb 0.01 in0.3 mm 0.00 in0.0 mm 0.02 in0.5 mm
10:37 AM 63.3°F17.4°C 61.8°F16.6°C 95% 2.1 mph SE3.4 kmh SE 7.5 mph12.1 kmh 29.92 in1013.2 mb 0.02 in0.5 mm 0.12 in3.0 mm 0.03 in0.8 mm
10:42 AM 63.4°F17.4°C 61.9°F16.6°C 95% 5.9 mph S9.5 kmh S 10.0 mph16.1 kmh 29.93 in1013.5 mb 0.04 in1.0 mm 0.24 in6.1 mm 0.05 in1.3 mm
10:47 AM 63.5°F17.5°C 62.0°F16.7°C 95% 6.8 mph SSE10.9 kmh SSE 13.8 mph22.2 kmh 29.93 in1013.5 mb 0.06 in1.5 mm 0.24 in6.1 mm 0.07 in1.8 mm
10:53 AM 63.5°F17.5°C 62.0°F16.7°C 95% 4.4 mph SSE7.1 kmh SSE 13.8 mph22.2 kmh 29.93 in1013.5 mb 0.07 in1.8 mm 0.10 in2.5 mm 0.08 in2.0 mm
10:58 AM 63.6°F17.6°C 61.8°F16.6°C 94% 3.9 mph S6.3 kmh S 12.0 mph19.3 kmh 29.94 in1013.9 mb 0.07 in1.8 mm 0.00 in0.0 mm 0.08 in2.0 mm
11:03 AM 63.7°F17.6°C 61.9°F16.6°C 94% 3.5 mph S5.6 kmh S 13.8 mph22.2 kmh 29.94 in1013.9 mb 0.08 in2.0 mm 0.01 in0.3 mm 0.09 in2.3 mm
11:08 AM 63.7°F17.6°C 61.9°F16.6°C 94% 3.8 mph S6.1 kmh S 13.8 mph22.2 kmh 29.94 in1013.9 mb 0.09 in2.3 mm 0.12 in3.0 mm 0.11 in2.8 mm
11:13 AM 63.6°F17.6°C 61.8°F16.6°C 94% 2.3 mph SSE3.7 kmh SSE 11.3 mph18.2 kmh 29.94 in1013.9 mb 0.11 in2.8 mm 0.24 in6.1 mm 0.12 in3.0 mm
11:18 AM 63.5°F17.5°C 61.7°F16.5°C 94% 1.3 mph E2.1 kmh E 11.0 mph17.7 kmh 29.92 in1013.2 mb 0.11 in2.8 mm 0.00 in0.0 mm 0.12 in3.0 mm
11:23 AM 63.5°F17.5°C 61.7°F16.5°C 94% 1.3 mph SW2.1 kmh SW 9.0 mph14.5 kmh 29.92 in1013.2 mb 0.12 in3.0 mm 0.12 in3.0 mm 0.13 in3.3 mm
11:28 AM 63.7°F17.6°C 62.2°F16.8°C 95% Calm Calm 7.0 mph11.3 kmh 29.92 in1013.2 mb 0.10 in2.5 mm 0.00 in0.0 mm 0.13 in3.3 mm
11:33 AM 63.8°F17.7°C 62.3°F16.8°C 95% 1.3 mph SSW2.1 kmh SSW 2.0 mph3.2 kmh 29.91 in1012.9 mb 0.10 in2.5 mm 0.00 in0.0 mm 0.13 in3.3 mm
11:38 AM 63.9°F17.7°C 62.4°F16.9°C 95% 1.8 mph NE2.9 kmh NE 2.5 mph4.0 kmh 29.90 in1012.5 mb 0.09 in2.3 mm 0.00 in0.0 mm 0.13 in3.3 mm
11:43 AM 63.9°F17.7°C 62.1°F16.7°C 94% 2.2 mph NE3.5 kmh NE 2.5 mph4.0 kmh 29.90 in1012.5 mb 0.07 in1.8 mm 0.00 in0.0 mm 0.13 in3.3 mm
11:48 AM 64.2°F17.9°C 62.7°F17.1°C 95% 1.6 mph SSE2.6 kmh SSE 2.5 mph4.0 kmh 29.90 in1012.5 mb 0.06 in1.5 mm 0.00 in0.0 mm 0.14 in3.6 mm
11:53 AM 64.3°F17.9°C 62.8°F17.1°C 95% 1.7 mph SSW2.7 kmh SSW 5.0 mph8.0 kmh 29.91 in1012.9 mb 0.05 in1.3 mm 0.00 in0.0 mm 0.14 in3.6 mm
11:58 AM 64.8°F18.2°C 63.3°F17.4°C 95% 1.5 mph SW2.4 kmh SW 5.0 mph8.0 kmh 29.91 in1012.9 mb 0.05 in1.3 mm 0.00 in0.0 mm 0.14 in3.6 mm
12:03 PM 65.1°F18.4°C 63.3°F17.4°C 94% 3.0 mph SSW4.8 kmh SSW 4.0 mph6.4 kmh 29.91 in1012.9 mb 0.04 in1.0 mm 0.00 in0.0 mm 0.14 in3.6 mm
12:08 PM 65.8°F18.8°C 63.7°F17.6°C 93% 2.8 mph S4.5 kmh S 7.5 mph12.1 kmh 29.91 in1012.9 mb 0.03 in0.8 mm 0.00 in0.0 mm 0.14 in3.6 mm
12:13 PM 66.1°F18.9°C 63.4°F17.4°C 91% 2.4 mph S3.9 kmh S 8.8 mph14.2 kmh 29.91 in1012.9 mb 0.02 in0.5 mm 0.00 in0.0 mm 0.14 in3.6 mm
12:18 PM 66.3°F19.1°C 63.6°F17.6°C 91% 1.7 mph SE2.7 kmh SE 8.8 mph14.2 kmh 29.90 in1012.5 mb 0.02 in0.5 mm 0.00 in0.0 mm 0.14 in3.6 mm
12:23 PM 66.8°F19.3°C 64.4°F18.0°C 92% 2.3 mph S3.7 kmh S 6.0 mph9.7 kmh 29.90 in1012.5 mb 0.01 in0.3 mm 0.00 in0.0 mm 0.14 in3.6 mm
12:28 PM 67.0°F19.4°C 64.0°F17.8°C 90% 3.9 mph S6.3 kmh S 6.3 mph10.1 kmh 29.90 in1012.5 mb 0.01 in0.3 mm 0.00 in0.0 mm 0.14 in3.6 mm
12:33 PM 66.8°F19.3°C 63.4°F17.4°C 89% 2.8 mph S4.5 kmh S 6.3 mph10.1 kmh 29.90 in1012.5 mb 0.01 in0.3 mm 0.00 in0.0 mm 0.14 in3.6 mm
12:38 PM 66.9°F19.4°C 63.5°F17.5°C 89% 3.7 mph S6.0 kmh S 7.5 mph12.1 kmh 29.91 in1012.9 mb 0.01 in0.3 mm 0.00 in0.0 mm 0.14 in3.6 mm
12:43 PM 66.9°F19.4°C 63.2°F17.3°C 88% 2.7 mph S4.3 kmh S 7.5 mph12.1 kmh 29.91 in1012.9 mb 0.01 in0.3 mm 0.00 in0.0 mm 0.14 in3.6 mm
12:48 PM 67.0°F19.4°C 63.6°F17.6°C 89% 2.8 mph S4.5 kmh S 6.3 mph10.1 kmh 29.91 in1012.9 mb 0.00 in0.0 mm 0.00 in0.0 mm 0.14 in3.6 mm
12:53 PM 67.4°F19.7°C 63.7°F17.6°C 88% 1.3 mph SSE2.1 kmh SSE 6.0 mph9.7 kmh 29.90 in1012.5 mb 0.00 in0.0 mm 0.00 in0.0 mm 0.14 in3.6 mm
12:58 PM 67.6°F19.8°C 64.2°F17.9°C 89% 1.3 mph NNE2.1 kmh NNE 5.0 mph8.0 kmh 29.90 in1012.5 mb 0.00 in0.0 mm 0.00 in0.0 mm 0.14 in3.6 mm
01:03 PM 68.5°F20.3°C 65.4°F18.6°C 90% 1.3 mph NE2.1 kmh NE 4.0 mph6.4 kmh 29.90 in1012.5 mb 0.00 in0.0 mm 0.00 in0.0 mm 0.14 in3.6 mm
01:08 PM 68.9°F20.5°C 64.2°F17.9°C 85% 1.3 mph SE2.1 kmh SE 3.8 mph6.1 kmh 29.89 in1012.2 mb 0.00 in0.0 mm 0.00 in0.0 mm 0.14 in3.6 mm
01:13 PM 69.0°F20.6°C 64.7°F18.2°C 86% 1.4 mph SE2.3 kmh SE 3.8 mph6.1 kmh 29.89 in1012.2 mb 0.00 in0.0 mm 0.00 in0.0 mm 0.14 in3.6 mm
01:18 PM 69.2°F20.7°C 64.2°F17.9°C 84% 1.6 mph WNW2.6 kmh WNW 2.5 mph4.0 kmh 29.89 in1012.2 mb 0.00 in0.0 mm 0.00 in0.0 mm 0.14 in3.6 mm
01:23 PM 69.6°F20.9°C 65.2°F18.4°C 86% 1.3 mph W2.1 kmh W 2.5 mph4.0 kmh 29.88 in1011.9 mb 0.00 in0.0 mm 0.00 in0.0 mm 0.14 in3.6 mm
01:28 PM 70.2°F21.2°C 65.1°F18.4°C 84% 1.8 mph WSW2.9 kmh WSW 3.0 mph4.8 kmh 29.88 in1011.9 mb 0.00 in0.0 mm 0.00 in0.0 mm 0.14 in3.6 mm
01:33 PM 70.9°F21.6°C 65.8°F18.8°C 84% 1.3 mph SW2.1 kmh SW 3.0 mph4.8 kmh 29.88 in1011.9 mb 0.00 in0.0 mm 0.00 in0.0 mm 0.14 in3.6 mm
01:38 PM 71.0°F21.7°C 65.3°F18.5°C 82% 1.6 mph E2.6 kmh E 3.8 mph6.1 kmh 29.88 in1011.9 mb 0.00 in0.0 mm 0.00 in0.0 mm 0.14 in3.6 mm
01:43 PM 71.5°F21.9°C 65.1°F18.4°C 80% 2.0 mph E3.2 kmh E 5.0 mph8.0 kmh 29.88 in1011.9 mb 0.00 in0.0 mm 0.00 in0.0 mm 0.14 in3.6 mm
01:48 PM 71.9°F22.2°C 65.5°F18.6°C 80% 2.9 mph SSE4.7 kmh SSE 5.0 mph8.0 kmh 29.88 in1011.9 mb 0.00 in0.0 mm 0.00 in0.0 mm 0.14 in3.6 mm
01:53 PM 72.0°F22.2°C 64.8°F18.2°C 78% 2.6 mph S4.2 kmh S 5.0 mph8.0 kmh 29.88 in1011.9 mb 0.00 in0.0 mm 0.00 in0.0 mm 0.14 in3.6 mm
01:58 PM 72.3°F22.4°C 64.3°F17.9°C 76% 2.5 mph S4.0 kmh S 5.0 mph8.0 kmh 29.87 in1011.5 mb 0.00 in0.0 mm 0.00 in0.0 mm 0.14 in3.6 mm
02:03 PM 72.4°F22.4°C 64.4°F18.0°C 76% 1.3 mph SW2.1 kmh SW 5.0 mph8.0 kmh 29.87 in1011.5 mb 0.00 in0.0 mm 0.00 in0.0 mm 0.14 in3.6 mm
02:08 PM 72.8°F22.7°C 64.2°F17.9°C 74% 1.5 mph E2.4 kmh E 5.0 mph8.0 kmh 29.87 in1011.5 mb 0.00 in0.0 mm 0.00 in0.0 mm 0.14 in3.6 mm
02:13 PM 73.0°F22.8°C 63.6°F17.6°C 72% 3.1 mph S5.0 kmh S 6.3 mph10.1 kmh 29.86 in1011.2 mb 0.00 in0.0 mm 0.00 in0.0 mm 0.14 in3.6 mm
02:18 PM 72.9°F22.7°C 63.5°F17.5°C 72% 2.9 mph S4.7 kmh S 6.3 mph10.1 kmh 29.87 in1011.5 mb 0.00 in0.0 mm 0.00 in0.0 mm 0.14 in3.6 mm
02:23 PM 72.7°F22.6°C 64.5°F18.1°C 75% 1.3 mph WSW2.1 kmh WSW 11.3 mph18.2 kmh 29.86 in1011.2 mb 0.00 in0.0 mm 0.00 in0.0 mm 0.14 in3.6 mm
02:28 PM 72.8°F22.7°C 63.0°F17.2°C 71% 6.6 mph SSW10.6 kmh SSW 11.3 mph18.2 kmh 29.86 in1011.2 mb 0.00 in0.0 mm 0.00 in0.0 mm 0.14 in3.6 mm
02:33 PM 73.0°F22.8°C 64.0°F17.8°C 73% 5.0 mph SSW8.0 kmh SSW 10.0 mph16.1 kmh 29.86 in1011.2 mb 0.00 in0.0 mm 0.00 in0.0 mm 0.14 in3.6 mm
02:38 PM 73.0°F22.8°C 64.0°F17.8°C 73% 1.9 mph ESE3.1 kmh ESE 12.5 mph20.1 kmh 29.86 in1011.2 mb 0.00 in0.0 mm 0.00 in0.0 mm 0.14 in3.6 mm
02:43 PM 73.2°F22.9°C 63.0°F17.2°C 70% 1.7 mph SW2.7 kmh SW 12.5 mph20.1 kmh 29.86 in1011.2 mb 0.00 in0.0 mm 0.00 in0.0 mm 0.14 in3.6 mm
02:48 PM 73.7°F23.2°C 63.9°F17.7°C 71% 1.3 mph SSE2.1 kmh SSE 11.0 mph17.7 kmh 29.85 in1010.8 mb 0.00 in0.0 mm 0.00 in0.0 mm 0.14 in3.6 mm
02:53 PM 73.7°F23.2°C 63.9°F17.7°C 71% 3.8 mph S6.1 kmh S 11.3 mph18.2 kmh 29.85 in1010.8 mb 0.00 in0.0 mm 0.00 in0.0 mm 0.14 in3.6 mm
02:58 PM 73.6°F23.1°C 63.4°F17.4°C 70% 4.0 mph S6.4 kmh S 11.3 mph18.2 kmh 29.85 in1010.8 mb 0.00 in0.0 mm 0.00 in0.0 mm 0.14 in3.6 mm
03:03 PM 73.3°F22.9°C 62.7°F17.1°C 69% 2.6 mph SW4.2 kmh SW 12.5 mph20.1 kmh 29.85 in1010.8 mb 0.00 in0.0 mm 0.00 in0.0 mm 0.14 in3.6 mm
03:08 PM 73.9°F23.3°C 65.6°F18.7°C 75% 1.5 mph SSE2.4 kmh SSE 12.5 mph20.1 kmh 29.85 in1010.8 mb 0.00 in0.0 mm 0.00 in0.0 mm 0.14 in3.6 mm
03:13 PM 74.2°F23.4°C 63.2°F17.3°C 68% 6.6 mph S10.6 kmh S 12.5 mph20.1 kmh 29.84 in1010.5 mb 0.00 in0.0 mm 0.00 in0.0 mm 0.14 in3.6 mm
03:18 PM 73.9°F23.3°C 63.7°F17.6°C 70% 4.1 mph SSE6.6 kmh SSE 12.5 mph20.1 kmh 29.84 in1010.5 mb 0.00 in0.0 mm 0.00 in0.0 mm 0.14 in3.6 mm
03:24 PM 74.6°F23.7°C 63.5°F17.5°C 68% 5.8 mph S9.3 kmh S 11.3 mph18.2 kmh 29.84 in1010.5 mb 0.00 in0.0 mm 0.00 in0.0 mm 0.14 in3.6 mm
03:29 PM 74.6°F23.7°C 63.5°F17.5°C 68% 3.3 mph E5.3 kmh E 11.3 mph18.2 kmh 29.84 in1010.5 mb 0.00 in0.0 mm 0.00 in0.0 mm 0.14 in3.6 mm
03:34 PM 74.7°F23.7°C 63.6°F17.6°C 68% 5.6 mph S9.0 kmh S 12.5 mph20.1 kmh 29.83 in1010.2 mb 0.00 in0.0 mm 0.00 in0.0 mm 0.14 in3.6 mm
03:39 PM 75.0°F23.9°C 63.5°F17.5°C 67% 6.8 mph S10.9 kmh S 12.5 mph20.1 kmh 29.83 in1010.2 mb 0.00 in0.0 mm 0.00 in0.0 mm 0.14 in3.6 mm
03:44 PM 75.6°F24.2°C 64.1°F17.8°C 67% 3.1 mph S5.0 kmh S 12.5 mph20.1 kmh 29.82 in1009.8 mb 0.00 in0.0 mm 0.00 in0.0 mm 0.14 in3.6 mm
03:49 PM 75.9°F24.4°C 64.4°F18.0°C 67% 7.0 mph S11.3 kmh S 11.3 mph18.2 kmh 29.82 in1009.8 mb 0.00 in0.0 mm 0.00 in0.0 mm 0.14 in3.6 mm
03:54 PM 75.5°F24.2°C 64.8°F18.2°C 69% 5.9 mph S9.5 kmh S 12.5 mph20.1 kmh 29.82 in1009.8 mb 0.00 in0.0 mm 0.00 in0.0 mm 0.14 in3.6 mm
03:59 PM 75.2°F24.0°C 64.1°F17.8°C 68% 8.1 mph S13.0 kmh S 15.0 mph24.1 kmh 29.81 in1009.5 mb 0.00 in0.0 mm 0.00 in0.0 mm 0.14 in3.6 mm
04:04 PM 75.0°F23.9°C 63.9°F17.7°C 68% 4.9 mph S7.9 kmh S 15.0 mph24.1 kmh 29.81 in1009.5 mb 0.00 in0.0 mm 0.00 in0.0 mm 0.14 in3.6 mm
04:09 PM 75.3°F24.1°C 62.9°F17.2°C 65% 4.7 mph S7.6 kmh S 12.0 mph19.3 kmh 29.81 in1009.5 mb 0.00 in0.0 mm 0.00 in0.0 mm 0.14 in3.6 mm
04:14 PM 75.6°F24.2°C 62.8°F17.1°C 64% 4.4 mph S7.1 kmh S 12.0 mph19.3 kmh 29.80 in1009.1 mb 0.00 in0.0 mm 0.00 in0.0 mm 0.14 in3.6 mm
04:19 PM 75.8°F24.3°C 63.4°F17.4°C 65% 6.1 mph S9.8 kmh S 10.0 mph16.1 kmh 29.80 in1009.1 mb 0.00 in0.0 mm 0.00 in0.0 mm 0.14 in3.6 mm
04:24 PM 75.9°F24.4°C 62.2°F16.8°C 62% 3.1 mph S5.0 kmh S 15.0 mph24.1 kmh 29.80 in1009.1 mb 0.00 in0.0 mm 0.00 in0.0 mm 0.14 in3.6 mm
04:30 PM 75.8°F24.3°C 63.0°F17.2°C 64% 5.2 mph SE8.4 kmh SE 15.0 mph24.1 kmh 29.80 in1009.1 mb 0.00 in0.0 mm 0.00 in0.0 mm 0.14 in3.6 mm
04:35 PM 76.0°F24.4°C 63.2°F17.3°C 64% 5.4 mph S8.7 kmh S 12.5 mph20.1 kmh 29.79 in1008.8 mb 0.00 in0.0 mm 0.00 in0.0 mm 0.14 in3.6 mm
04:40 PM 76.5°F24.7°C 63.6°F17.6°C 64% 3.3 mph SSW5.3 kmh SSW 12.0 mph19.3 kmh 29.79 in1008.8 mb 0.00 in0.0 mm 0.00 in0.0 mm 0.14 in3.6 mm
04:45 PM 76.3°F24.6°C 63.0°F17.2°C 63% 2.7 mph SE4.3 kmh SE 12.0 mph19.3 kmh 29.78 in1008.5 mb 0.00 in0.0 mm 0.00 in0.0 mm 0.14 in3.6 mm
04:50 PM 76.7°F24.8°C 62.9°F17.2°C 62% 2.1 mph SW3.4 kmh SW 10.0 mph16.1 kmh 29.78 in1008.5 mb 0.00 in0.0 mm 0.00 in0.0 mm 0.14 in3.6 mm
04:55 PM 76.4°F24.7°C 63.1°F17.3°C 63% 3.1 mph SE5.0 kmh SE 7.5 mph12.1 kmh 29.78 in1008.5 mb 0.00 in0.0 mm 0.00 in0.0 mm 0.14 in3.6 mm
05:00 PM 75.6°F24.2°C 61.7°F16.5°C 62% 4.1 mph SSE6.6 kmh SSE 12.5 mph20.1 kmh 29.78 in1008.5 mb 0.00 in0.0 mm 0.00 in0.0 mm 0.14 in3.6 mm
05:05 PM 74.9°F23.8°C 61.9°F16.6°C 64% 3.6 mph SSE5.8 kmh SSE 12.5 mph20.1 kmh 29.79 in1008.8 mb 0.00 in0.0 mm 0.00 in0.0 mm 0.14 in3.6 mm
05:10 PM 74.7°F23.7°C 62.4°F16.9°C 65% 3.3 mph SSE5.3 kmh SSE 10.0 mph16.1 kmh 29.79 in1008.8 mb 0.00 in0.0 mm 0.00 in0.0 mm 0.14 in3.6 mm
05:15 PM 74.4°F23.6°C 61.4°F16.3°C 64% 1.8 mph ESE2.9 kmh ESE 10.0 mph16.1 kmh 29.78 in1008.5 mb 0.00 in0.0 mm 0.00 in0.0 mm 0.14 in3.6 mm
05:20 PM 74.1°F23.4°C 62.4°F16.9°C 67% 1.8 mph S2.9 kmh S 10.0 mph16.1 kmh 29.79 in1008.8 mb 0.00 in0.0 mm 0.00 in0.0 mm 0.14 in3.6 mm
05:25 PM 73.9°F23.3°C 62.7°F17.1°C 68% Calm Calm 9.0 mph14.5 kmh 29.79 in1008.8 mb 0.00 in0.0 mm 0.00 in0.0 mm 0.14 in3.6 mm
05:30 PM 73.6°F23.1°C 62.2°F16.8°C 67% 1.3 mph WSW2.1 kmh WSW 9.0 mph14.5 kmh 29.80 in1009.1 mb 0.00 in0.0 mm 0.00 in0.0 mm 0.14 in3.6 mm
05:35 PM 72.8°F22.7°C 63.2°F17.3°C 72% 1.3 mph WNW2.1 kmh WNW 3.0 mph4.8 kmh 29.82 in1009.8 mb 0.00 in0.0 mm 0.00 in0.0 mm 0.14 in3.6 mm
05:40 PM 71.6°F22.0°C 64.5°F18.1°C 78% 4.5 mph NNW7.2 kmh NNW 11.3 mph18.2 kmh 29.83 in1010.2 mb 0.00 in0.0 mm 0.00 in0.0 mm 0.14 in3.6 mm
05:45 PM 69.5°F20.8°C 61.0°F16.1°C 74% 3.1 mph N5.0 kmh N 16.3 mph26.2 kmh 29.84 in1010.5 mb 0.00 in0.0 mm 0.00 in0.0 mm 0.14 in3.6 mm
05:50 PM 67.4°F19.7°C 58.6°F14.8°C 73% 3.6 mph N5.8 kmh N 17.5 mph28.2 kmh 29.85 in1010.8 mb 0.00 in0.0 mm 0.00 in0.0 mm 0.14 in3.6 mm
05:55 PM 65.5°F18.6°C 58.9°F14.9°C 79% 3.3 mph NW5.3 kmh NW 17.5 mph28.2 kmh 29.85 in1010.8 mb 0.01 in0.3 mm 0.12 in3.0 mm 0.15 in3.8 mm
06:00 PM 63.7°F17.6°C 58.5°F14.7°C 83% 4.8 mph N7.7 kmh N 15.0 mph24.1 kmh 29.86 in1011.2 mb 0.01 in0.3 mm 0.00 in0.0 mm 0.15 in3.8 mm
06:05 PM 62.6°F17.0°C 58.4°F14.7°C 86% 3.5 mph NNW5.6 kmh NNW 13.0 mph20.9 kmh 29.86 in1011.2 mb 0.01 in0.3 mm 0.00 in0.0 mm 0.15 in3.8 mm
06:10 PM 61.9°F16.6°C 58.3°F14.6°C 88% 4.4 mph N7.1 kmh N 12.0 mph19.3 kmh 29.86 in1011.2 mb 0.01 in0.3 mm 0.00 in0.0 mm 0.15 in3.8 mm
06:15 PM 61.3°F16.3°C 58.0°F14.4°C 89% 7.2 mph N11.6 kmh N 13.8 mph22.2 kmh 29.85 in1010.8 mb 0.01 in0.3 mm 0.00 in0.0 mm 0.15 in3.8 mm
06:20 PM 60.9°F16.1°C 57.9°F14.4°C 90% 4.2 mph NNW6.8 kmh NNW 13.8 mph22.2 kmh 29.85 in1010.8 mb 0.01 in0.3 mm 0.00 in0.0 mm 0.15 in3.8 mm
06:25 PM 60.6°F15.9°C 57.9°F14.4°C 91% 7.5 mph 12.1 kmh 11.3 mph18.2 kmh 29.84 in1010.5 mb 0.05 in1.3 mm 0.48 in12.2 mm 0.19 in4.8 mm
06:30 PM 60.3°F15.7°C 57.9°F14.4°C 92% 1.8 mph E2.9 kmh E 13.8 mph22.2 kmh 29.85 in1010.8 mb 0.07 in1.8 mm 0.24 in6.1 mm 0.21 in5.3 mm
06:35 PM 60.1°F15.6°C 57.7°F14.3°C 92% 1.3 mph SSW2.1 kmh SSW 13.8 mph22.2 kmh 29.85 in1010.8 mb 0.08 in2.0 mm 0.12 in3.0 mm 0.22 in5.6 mm
06:40 PM 59.8°F15.4°C 57.4°F14.1°C 92% 5.5 mph N8.9 kmh N 10.0 mph16.1 kmh 29.85 in1010.8 mb 0.15 in3.8 mm 0.84 in21.3 mm 0.28 in7.1 mm
06:45 PM 59.6°F15.3°C 57.5°F14.2°C 93% 4.8 mph N7.7 kmh N 12.5 mph20.1 kmh 29.86 in1011.2 mb 0.27 in6.9 mm 1.44 in36.6 mm 0.41 in10.4 mm
06:50 PM 59.5°F15.3°C 57.7°F14.3°C 94% 2.9 mph S4.7 kmh S 12.5 mph20.1 kmh 29.88 in1011.9 mb 0.32 in8.1 mm 0.60 in15.2 mm 0.45 in11.4 mm
06:55 PM 59.5°F15.3°C 57.7°F14.3°C 94% 3.5 mph SSE5.6 kmh SSE 10.0 mph16.1 kmh 29.90 in1012.5 mb 0.33 in8.4 mm 0.12 in3.0 mm 0.47 in11.9 mm
07:00 PM 59.4°F15.2°C 57.6°F14.2°C 94% 3.3 mph NNW5.3 kmh NNW 9.0 mph14.5 kmh 29.88 in1011.9 mb 0.35 in8.9 mm 0.02 in0.5 mm 0.49 in12.4 mm
07:05 PM 59.3°F15.2°C 57.5°F14.2°C 94% Calm Calm 7.5 mph12.1 kmh 29.88 in1011.9 mb 0.38 in9.7 mm 0.36 in9.1 mm 0.52 in13.2 mm
07:10 PM 59.2°F15.1°C 57.4°F14.1°C 94% 4.7 mph NNW7.6 kmh NNW 8.8 mph14.2 kmh 29.87 in1011.5 mb 0.39 in9.9 mm 0.12 in3.0 mm 0.54 in13.7 mm
07:15 PM 59.2°F15.1°C 57.5°F14.2°C 94% 3.3 mph N5.3 kmh N 8.8 mph14.2 kmh 29.87 in1011.5 mb 0.40 in10.2 mm 0.12 in3.0 mm 0.55 in14.0 mm
07:20 PM 59.2°F15.1°C 57.4°F14.1°C 94% 3.0 mph NNE4.8 kmh NNE 8.0 mph12.9 kmh 29.87 in1011.5 mb 0.42 in10.7 mm 0.24 in6.1 mm 0.57 in14.5 mm
07:25 PM 59.1°F15.1°C 57.3°F14.1°C 94% 2.6 mph NE4.2 kmh NE 8.0 mph12.9 kmh 29.87 in1011.5 mb 0.38 in9.7 mm 0.00 in0.0 mm 0.57 in14.5 mm
07:30 PM 59.1°F15.1°C 57.3°F14.1°C 94% 3.0 mph 4.8 kmh 7.5 mph12.1 kmh 29.87 in1011.5 mb 0.37 in9.4 mm 0.00 in0.0 mm 0.58 in14.7 mm
07:35 PM 59.0°F15.0°C 56.9°F13.8°C 93% 4.9 mph N7.9 kmh N 8.8 mph14.2 kmh 29.87 in1011.5 mb 0.35 in8.9 mm 0.00 in0.0 mm 0.58 in14.7 mm
07:40 PM 59.0°F15.0°C 56.9°F13.8°C 93% 2.7 mph NNE4.3 kmh NNE 8.8 mph14.2 kmh 29.87 in1011.5 mb 0.29 in7.4 mm 0.00 in0.0 mm 0.58 in14.7 mm
07:45 PM 59.0°F15.0°C 56.9°F13.8°C 93% 4.5 mph N7.2 kmh N 8.8 mph14.2 kmh 29.87 in1011.5 mb 0.18 in4.6 mm 0.00 in0.0 mm 0.59 in15.0 mm
07:50 PM 58.9°F14.9°C 56.9°F13.8°C 93% 2.5 mph NE4.0 kmh NE 10.0 mph16.1 kmh 29.86 in1011.2 mb 0.14 in3.6 mm 0.00 in0.0 mm 0.59 in15.0 mm
07:55 PM 58.8°F14.9°C 56.7°F13.7°C 93% 3.3 mph NE5.3 kmh NE 10.0 mph16.1 kmh 29.86 in1011.2 mb 0.13 in3.3 mm 0.00 in0.0 mm 0.60 in15.2 mm
08:00 PM 58.8°F14.9°C 56.7°F13.7°C 93% 2.3 mph ENE3.7 kmh ENE 10.0 mph16.1 kmh 29.87 in1011.5 mb 0.09 in2.3 mm 0.00 in0.0 mm 0.60 in15.2 mm
08:05 PM 58.7°F14.8°C 56.6°F13.7°C 93% 1.7 mph N2.7 kmh N 9.0 mph14.5 kmh 29.87 in1011.5 mb 0.08 in2.0 mm 0.00 in0.0 mm 0.61 in15.5 mm
08:10 PM 58.7°F14.8°C 56.9°F13.8°C 94% 1.3 mph SW2.1 kmh SW 9.0 mph14.5 kmh 29.88 in1011.9 mb 0.08 in2.0 mm 0.00 in0.0 mm 0.62 in15.7 mm
08:15 PM 58.7°F14.8°C 56.9°F13.8°C 94% 1.7 mph N2.7 kmh N 3.0 mph4.8 kmh 29.87 in1011.5 mb 0.07 in1.8 mm 0.00 in0.0 mm 0.63 in16.0 mm
08:20 PM 58.5°F14.7°C 56.7°F13.7°C 94% 2.1 mph SW3.4 kmh SW 3.8 mph6.1 kmh 29.88 in1011.9 mb 0.08 in2.0 mm 0.12 in3.0 mm 0.65 in16.5 mm
08:25 PM 58.5°F14.7°C 57.0°F13.9°C 95% 2.3 mph N3.7 kmh N 3.8 mph6.1 kmh 29.88 in1011.9 mb 0.11 in2.8 mm 0.36 in9.1 mm 0.67 in17.0 mm
08:30 PM 58.7°F14.8°C 57.3°F14.1°C 95% 3.4 mph SSE5.5 kmh SSE 6.3 mph10.1 kmh 29.90 in1012.5 mb 0.11 in2.8 mm 0.00 in0.0 mm 0.68 in17.3 mm
08:35 PM 58.9°F14.9°C 57.4°F14.1°C 95% 2.8 mph NE4.5 kmh NE 6.3 mph10.1 kmh 29.89 in1012.2 mb 0.13 in3.3 mm 0.24 in6.1 mm 0.70 in17.8 mm
08:40 PM 59.1°F15.1°C 57.6°F14.2°C 95% 3.0 mph NE4.8 kmh NE 6.3 mph10.1 kmh 29.89 in1012.2 mb 0.14 in3.6 mm 0.12 in3.0 mm 0.71 in18.0 mm
08:45 PM 59.2°F15.1°C 57.7°F14.3°C 95% 1.4 mph NE2.3 kmh NE 6.3 mph10.1 kmh 29.89 in1012.2 mb 0.13 in3.3 mm 0.00 in0.0 mm 0.71 in18.0 mm
08:51 PM 59.3°F15.2°C 57.8°F14.3°C 95% 1.8 mph SSW2.9 kmh SSW 5.0 mph8.0 kmh 29.90 in1012.5 mb 0.13 in3.3 mm 0.00 in0.0 mm 0.71 in18.0 mm
08:56 PM 59.3°F15.2°C 57.8°F14.3°C 95% Calm Calm 5.0 mph8.0 kmh 29.90 in1012.5 mb 0.13 in3.3 mm 0.00 in0.0 mm 0.72 in18.3 mm
09:01 PM 59.4°F15.2°C 57.9°F14.4°C 95% 3.4 mph NE5.5 kmh NE 7.5 mph12.1 kmh 29.87 in1011.5 mb 0.14 in3.6 mm 0.01 in0.3 mm 0.74 in18.8 mm
09:06 PM 59.4°F15.2°C 57.9°F14.4°C 95% 1.3 mph N2.1 kmh N 7.5 mph12.1 kmh 29.88 in1011.9 mb 0.13 in3.3 mm 0.00 in0.0 mm 0.74 in18.8 mm
09:11 PM 59.5°F15.3°C 58.0°F14.4°C 95% 1.3 mph NE2.1 kmh NE 6.0 mph9.7 kmh 29.89 in1012.2 mb 0.12 in3.0 mm 0.00 in0.0 mm 0.74 in18.8 mm
09:16 PM 59.5°F15.3°C 58.1°F14.5°C 95% Calm Calm 5.0 mph8.0 kmh 29.90 in1012.5 mb 0.11 in2.8 mm 0.00 in0.0 mm 0.74 in18.8 mm
09:21 PM 59.5°F15.3°C 58.0°F14.4°C 95% Calm Calm 2.0 mph3.2 kmh 29.89 in1012.2 mb 0.08 in2.0 mm 0.00 in0.0 mm 0.74 in18.8 mm
09:26 PM 59.5°F15.3°C 58.0°F14.4°C 95% Calm Calm 1.0 mph1.6 kmh 29.90 in1012.5 mb 0.06 in1.5 mm 0.00 in0.0 mm 0.74 in18.8 mm
09:31 PM 59.5°F15.3°C 58.0°F14.4°C 95% 1.6 mph WSW2.6 kmh WSW 2.5 mph4.0 kmh 29.90 in1012.5 mb 0.05 in1.3 mm 0.00 in0.0 mm 0.74 in18.8 mm
09:36 PM 59.5°F15.3°C 58.0°F14.4°C 95% Calm Calm 2.5 mph4.0 kmh 29.89 in1012.2 mb 0.03 in0.8 mm 0.00 in0.0 mm 0.74 in18.8 mm
09:41 PM 59.6°F15.3°C 58.1°F14.5°C 95% Calm Calm 2.0 mph3.2 kmh 29.90 in1012.5 mb 0.02 in0.5 mm 0.00 in0.0 mm 0.74 in18.8 mm
09:46 PM 59.7°F15.4°C 58.2°F14.6°C 95% Calm Calm 2.0 mph3.2 kmh 29.90 in1012.5 mb 0.02 in0.5 mm 0.00 in0.0 mm 0.74 in18.8 mm
09:51 PM 59.7°F15.4°C 58.2°F14.6°C 95% Calm Calm 1.0 mph1.6 kmh 29.90 in1012.5 mb 0.02 in0.5 mm 0.00 in0.0 mm 0.74 in18.8 mm
09:56 PM 59.7°F15.4°C 58.2°F14.6°C 95% Calm Calm 1.0 mph1.6 kmh 29.90 in1012.5 mb 0.01 in0.3 mm 0.00 in0.0 mm 0.74 in18.8 mm
10:01 PM 59.7°F15.4°C 58.2°F14.6°C 95% Calm Calm 1.0 mph1.6 kmh 29.90 in1012.5 mb 0.00 in0.0 mm 0.00 in0.0 mm 0.74 in18.8 mm
10:06 PM 59.6°F15.3°C 58.2°F14.6°C 95% Calm Calm 1.0 mph1.6 kmh 29.90 in1012.5 mb 0.00 in0.0 mm 0.00 in0.0 mm 0.74 in18.8 mm
10:11 PM 59.6°F15.3°C 58.2°F14.6°C 95% Calm Calm -- 29.89 in1012.2 mb 0.00 in0.0 mm 0.00 in0.0 mm 0.74 in18.8 mm
10:16 PM 59.6°F15.3°C 58.1°F14.5°C 95% Calm Calm -- 29.90 in1012.5 mb 0.00 in0.0 mm 0.00 in0.0 mm 0.74 in18.8 mm
10:21 PM 59.5°F15.3°C 58.0°F14.4°C 95% 1.3 mph SE2.1 kmh SE 1.3 mph2.1 kmh 29.89 in1012.2 mb 0.00 in0.0 mm 0.00 in0.0 mm 0.74 in18.8 mm
10:26 PM 59.5°F15.3°C 58.0°F14.4°C 95% Calm Calm 1.3 mph2.1 kmh 29.89 in1012.2 mb 0.00 in0.0 mm 0.00 in0.0 mm 0.74 in18.8 mm
10:31 PM 59.5°F15.3°C 58.0°F14.4°C 95% Calm Calm 1.0 mph1.6 kmh 29.89 in1012.2 mb 0.00 in0.0 mm 0.00 in0.0 mm 0.74 in18.8 mm
10:36 PM 59.5°F15.3°C 58.0°F14.4°C 95% Calm Calm 1.0 mph1.6 kmh 29.89 in1012.2 mb 0.00 in0.0 mm 0.00 in0.0 mm 0.74 in18.8 mm
10:41 PM 59.5°F15.3°C 58.3°F14.6°C 96% Calm Calm -- 29.89 in1012.2 mb 0.00 in0.0 mm 0.00 in0.0 mm 0.74 in18.8 mm
10:46 PM 59.4°F15.2°C 57.9°F14.4°C 95% Calm Calm -- 29.89 in1012.2 mb 0.00 in0.0 mm 0.00 in0.0 mm 0.74 in18.8 mm
10:51 PM 59.4°F15.2°C 58.2°F14.6°C 96% Calm Calm -- 29.89 in1012.2 mb 0.00 in0.0 mm 0.00 in0.0 mm 0.74 in18.8 mm
10:56 PM 59.3°F15.2°C 57.8°F14.3°C 95% Calm Calm -- 29.89 in1012.2 mb 0.00 in0.0 mm 0.00 in0.0 mm 0.74 in18.8 mm
11:01 PM 59.2°F15.1°C 58.0°F14.4°C 96% Calm Calm -- 29.90 in1012.5 mb 0.00 in0.0 mm 0.00 in0.0 mm 0.74 in18.8 mm
11:06 PM 59.1°F15.1°C 57.9°F14.4°C 96% Calm Calm -- 29.89 in1012.2 mb 0.00 in0.0 mm 0.00 in0.0 mm 0.74 in18.8 mm
11:11 PM 59.1°F15.1°C 57.9°F14.4°C 96% Calm Calm -- 29.89 in1012.2 mb 0.00 in0.0 mm 0.00 in0.0 mm 0.74 in18.8 mm
11:16 PM 59.0°F15.0°C 57.5°F14.2°C 95% Calm Calm 1.0 mph1.6 kmh 29.88 in1011.9 mb 0.00 in0.0 mm 0.00 in0.0 mm 0.74 in18.8 mm
11:21 PM 58.9°F14.9°C 57.7°F14.3°C 96% Calm Calm 1.0 mph1.6 kmh 29.88 in1011.9 mb 0.00 in0.0 mm 0.00 in0.0 mm 0.74 in18.8 mm
11:26 PM 58.9°F14.9°C 57.8°F14.3°C 96% Calm Calm 1.0 mph1.6 kmh 29.88 in1011.9 mb 0.00 in0.0 mm 0.00 in0.0 mm 0.74 in18.8 mm
11:31 PM 58.8°F14.9°C 57.7°F14.3°C 96% Calm Calm 1.0 mph1.6 kmh 29.88 in1011.9 mb 0.00 in0.0 mm 0.00 in0.0 mm 0.74 in18.8 mm
11:36 PM 58.6°F14.8°C 57.4°F14.1°C 96% Calm Calm -- 29.88 in1011.9 mb 0.00 in0.0 mm 0.00 in0.0 mm 0.74 in18.8 mm
11:41 PM 58.6°F14.8°C 57.4°F14.1°C 96% Calm Calm -- 29.88 in1011.9 mb 0.00 in0.0 mm 0.00 in0.0 mm 0.74 in18.8 mm
11:46 PM 58.5°F14.7°C 57.3°F14.1°C 96% Calm Calm -- 29.88 in1011.9 mb 0.00 in0.0 mm 0.00 in0.0 mm 0.74 in18.8 mm
11:51 PM 58.6°F14.8°C 57.4°F14.1°C 96% Calm Calm -- 29.88 in1011.9 mb 0.00 in0.0 mm 0.00 in0.0 mm 0.74 in18.8 mm
11:56 PM 58.5°F14.7°C 57.3°F14.1°C 96% Calm Calm -- 29.88 in1011.9 mb 0.00 in0.0 mm 0.00 in0.0 mm 0.74 in18.8 mm